This is the latest recevied weather packets stored in our database for station/object K2RMB. If no packets are shown the sender has not sent any weather packets the latest 10 day(s).
| Time | Temp. | Humidity | Pressure | Rain* | Wind** | Luminosity | Snow |
|---|---|---|---|---|---|---|---|
| 1777515835 | 13.89° C | 58% | 1010.1 hPa | 0 mm | - | 0 W/m² | - |
| 1777515532 | 13.89° C | 58% | 1010.1 hPa | 0 mm | - | 0 W/m² | - |
| 1777515229 | 13.89° C | 59% | 1010.1 hPa | 0 mm | - | 0 W/m² | - |
| 1777514924 | 13.89° C | 59% | 1009.8 hPa | 0 mm | - | 0 W/m² | - |
| 1777514622 | 13.89° C | 59% | 1009.8 hPa | 0 mm | - | 0 W/m² | - |
| 1777514319 | 13.89° C | 60% | 1009.8 hPa | 0 mm | - | 0 W/m² | - |
| 1777514015 | 13.89° C | 60% | 1009.8 hPa | 0 mm | - | 0 W/m² | - |
| 1777513713 | 13.89° C | 60% | 1009.8 hPa | 0 mm | - | 0 W/m² | - |
| 1777513410 | 13.89° C | 60% | 1009.8 hPa | 0 mm | - | 0 W/m² | - |
| 1777513106 | 14.44° C | 59% | 1010.1 hPa | 0 mm | - | 0 W/m² | - |
| 1777512195 | 14.44° C | 59% | 1009.8 hPa | 0 mm | - | 0 W/m² | - |
| 1777511893 | 14.44° C | 59% | 1010.1 hPa | 0 mm | - | 0 W/m² | - |
| 1777511591 | 14.44° C | 59% | 1009.8 hPa | 0 mm | - | 0 W/m² | - |
| 1777508860 | 15° C | 59% | 1009.8 hPa | 0 mm | - | 0 W/m² | - |
| 1777508557 | 15° C | 59% | 1010.1 hPa | 0 mm | - | 0 W/m² | - |
| 1777508254 | 15.56° C | 58% | 1009.8 hPa | 0 mm | - | 0 W/m² | - |
| 1777507647 | 15.56° C | 58% | 1009.8 hPa | 0 mm | - | 0 W/m² | - |
| 1777505827 | 16.11° C | 54% | 1010.1 hPa | 0 mm | - | 5 W/m² | - |
| 1777505524 | 16.11° C | 53% | 1010.1 hPa | 0 mm | - | 6 W/m² | - |
| 1777505221 | 16.11° C | 53% | 1010.1 hPa | 0 mm | - | 10 W/m² | - |
| 1777502490 | 16.67° C | 54% | 1010.1 hPa | 0 mm | - | 42 W/m² | - |
| 1777499763 | 17.22° C | 52% | 1010.8 hPa | 0 mm | - | 119 W/m² | - |
| 1777497641 | 17.78° C | 52% | 1010.8 hPa | 0 mm | - | 168 W/m² | - |
| 1777497338 | 17.78° C | 51% | 1010.8 hPa | 0 mm | - | 187 W/m² | - |
| 1777493396 | 18.89° C | 48% | 1011.1 hPa | 0 mm | - | 246 W/m² | - |
* Rain latest hour (hover to see other rain measurements)
** Current wind speed in m/s (hover to see current wind gust speed)